Darstellungsparameter: Aktuell verwendete Einstellungen:
Skalierung der Graphiken ... ?
xyx+y,   Skalierungsfaktor:      Skalierung: Modus: x, Faktor: 1
Darstellungszeitraum ... ?
Vom - - bis: - -   Zeitraum: 30.05.2022 - 30.05.2022
Min/Max/Avg-Anzeige ... ?
Zeige MMA aktuell
Zeige MMA Monat
Zeige MMA alles
Zeige --A aktuell
Zeige --A Monat
Zeige --A alles
Keine MMA-Anzeige
MMA:
Keine MMA-Graphiken
MMA-Basis: 30.05.2022 - 30.05.2022
Quicknavigation für Darstellung... ?
Tage:      1T, 2T, 3T, 5T -1T -2T -3T -5T +1T +2T +3T +5T
Wochen: 1W, 2W, 3W -1W -2W -3W +1W +2W +3W
Monate: 1M, 3M, 6M -1M -3M -6M +1M +3M +6M
Jahre:    1J, 3J, 5J, 10J -1J -3J -5J -10J +1J +3J +5J +10J
Nutze für die Darstellung ... ?
Originaldaten oder Mittelwerte auf ...
Stundenbasis Tagesbasis Wochenbasis
Monatsbasis Jahresbasis      Datenbasis: Original-Daten
Darstellen als:
Statistik (Auto) Statistik J:M      Darstellung:
Zur Graphik,    zurück zur Übersicht aller Sensoren.
 
Tabellarische Datenbersicht: ?
 
Sensor: Nr:Datum:Temp:Feuchte:Taupunkt:
Aussen-T/F 1 30-05-2022 00:00:00 7.4 C 92 % 6.19 C
2 30-05-2022 00:05:00 7.4 C 92 % 6.19 C
3 30-05-2022 00:10:00 7.5 C 92 % 6.29 C
4 30-05-2022 00:15:00 7.5 C 92 % 6.29 C
5 30-05-2022 00:20:00 7.5 C 92 % 6.29 C
6 30-05-2022 00:25:00 7.5 C 92 % 6.29 C
7 30-05-2022 00:30:00 7.5 C 92 % 6.29 C
8 30-05-2022 00:35:00 7.5 C 92 % 6.29 C
9 30-05-2022 00:40:00 7.6 C 92 % 6.39 C
10 30-05-2022 00:45:00 7.6 C 92 % 6.39 C
11 30-05-2022 00:50:00 7.6 C 92 % 6.39 C
12 30-05-2022 00:55:00 7.5 C 92 % 6.29 C
13 30-05-2022 01:00:00 7.4 C 92 % 6.19 C
14 30-05-2022 01:05:00 7.3 C 92 % 6.09 C
15 30-05-2022 01:10:00 7.2 C 92 % 5.99 C
16 30-05-2022 01:15:00 7.2 C 92 % 5.99 C
17 30-05-2022 01:20:00 7.2 C 92 % 5.99 C
18 30-05-2022 01:25:00 7.2 C 93 % 6.15 C
19 30-05-2022 01:30:00 7.2 C 93 % 6.15 C
20 30-05-2022 01:35:00 7.2 C 93 % 6.15 C
21 30-05-2022 01:40:00 7.3 C 93 % 6.25 C
22 30-05-2022 01:45:00 7.3 C 93 % 6.25 C
23 30-05-2022 01:50:00 7.3 C 93 % 6.25 C
24 30-05-2022 01:55:00 7.2 C 93 % 6.15 C
25 30-05-2022 02:00:00 7.2 C 93 % 6.15 C
Sensor: Nr:Datum:Temp:Feuchte:Taupunkt:
Aussen-T/F 26 30-05-2022 02:05:00 7.1 C 93 % 6.05 C
27 30-05-2022 02:10:00 7.1 C 93 % 6.05 C
28 30-05-2022 02:15:00 7 C 93 % 5.95 C
29 30-05-2022 02:20:00 7.1 C 93 % 6.05 C
30 30-05-2022 02:25:00 7.2 C 93 % 6.15 C
31 30-05-2022 02:30:00 7.2 C 94 % 6.3 C
32 30-05-2022 02:35:00 7.3 C 94 % 6.4 C
33 30-05-2022 02:40:00 7.4 C 94 % 6.5 C
34 30-05-2022 02:45:00 7.6 C 94 % 6.7 C
35 30-05-2022 02:50:00 7.6 C 94 % 6.7 C
36 30-05-2022 02:55:00 7.7 C 94 % 6.8 C
37 30-05-2022 03:00:00 7.7 C 94 % 6.8 C
38 30-05-2022 03:05:00 7.7 C 94 % 6.8 C
39 30-05-2022 03:10:00 7.8 C 94 % 6.9 C
40 30-05-2022 03:15:00 7.8 C 94 % 6.9 C
41 30-05-2022 03:20:00 7.8 C 94 % 6.9 C
42 30-05-2022 03:25:00 7.9 C 94 % 7 C
43 30-05-2022 03:30:00 7.9 C 94 % 7 C
44 30-05-2022 03:35:00 7.9 C 94 % 7 C
45 30-05-2022 03:40:00 8 C 94 % 7.09 C
46 30-05-2022 03:45:00 8 C 94 % 7.09 C
47 30-05-2022 03:50:00 8 C 94 % 7.09 C
48 30-05-2022 03:55:00 8.1 C 93 % 7.04 C
49 30-05-2022 04:00:00 8.1 C 93 % 7.04 C
50 30-05-2022 04:05:00 8.1 C 93 % 7.04 C
Sensor: Nr:Datum:Temp:Feuchte:Taupunkt:
Aussen-T/F 51 30-05-2022 04:10:00 8.1 C 93 % 7.04 C
52 30-05-2022 04:15:00 8.2 C 93 % 7.14 C
53 30-05-2022 04:20:00 8.2 C 93 % 7.14 C
54 30-05-2022 04:25:00 8.2 C 93 % 7.14 C
55 30-05-2022 04:30:00 8.2 C 93 % 7.14 C
56 30-05-2022 04:35:00 8.2 C 93 % 7.14 C
57 30-05-2022 04:40:00 8.3 C 93 % 7.24 C
58 30-05-2022 04:45:00 8.3 C 93 % 7.24 C
59 30-05-2022 04:50:00 8.3 C 93 % 7.24 C
60 30-05-2022 04:55:00 8.3 C 93 % 7.24 C
61 30-05-2022 05:00:00 8.3 C 93 % 7.24 C
62 30-05-2022 05:05:00 8.3 C 93 % 7.24 C
63 30-05-2022 05:10:00 8.3 C 93 % 7.24 C
64 30-05-2022 05:15:00 8.3 C 93 % 7.24 C
65 30-05-2022 05:20:00 8.3 C 93 % 7.24 C
66 30-05-2022 05:25:00 8.3 C 93 % 7.24 C
67 30-05-2022 05:30:00 8.3 C 93 % 7.24 C
68 30-05-2022 05:35:00 8.3 C 93 % 7.24 C
69 30-05-2022 05:40:00 8.3 C 93 % 7.24 C
70 30-05-2022 05:45:00 8.3 C 93 % 7.24 C
71 30-05-2022 05:50:00 8.3 C 93 % 7.24 C
72 30-05-2022 05:55:00 8.2 C 93 % 7.14 C
73 30-05-2022 06:00:00 8.3 C 93 % 7.24 C
74 30-05-2022 06:05:00 8.3 C 93 % 7.24 C
75 30-05-2022 06:10:00 8.3 C 93 % 7.24 C
Sensor: Nr:Datum:Temp:Feuchte:Taupunkt:
Aussen-T/F 76 30-05-2022 06:15:00 8.3 C 93 % 7.24 C
77 30-05-2022 06:20:00 8.4 C 93 % 7.34 C
78 30-05-2022 06:25:00 8.4 C 93 % 7.34 C
79 30-05-2022 06:30:00 8.4 C 93 % 7.34 C
80 30-05-2022 06:35:00 8.5 C 93 % 7.43 C
81 30-05-2022 06:40:00 8.5 C 93 % 7.43 C
82 30-05-2022 06:45:00 8.6 C 93 % 7.53 C
83 30-05-2022 06:50:00 8.6 C 92 % 7.38 C
84 30-05-2022 06:55:00 8.7 C 92 % 7.47 C
85 30-05-2022 07:00:00 8.7 C 92 % 7.47 C
86 30-05-2022 07:05:00 8.8 C 92 % 7.57 C
87 30-05-2022 07:10:00 8.9 C 92 % 7.67 C
88 30-05-2022 07:15:00 9 C 92 % 7.77 C
89 30-05-2022 07:20:00 9.2 C 92 % 7.97 C
90 30-05-2022 07:25:00 9.3 C 92 % 8.07 C
91 30-05-2022 07:30:00 9.3 C 91 % 7.91 C
92 30-05-2022 07:35:00 9.5 C 91 % 8.11 C
93 30-05-2022 07:40:00 9.6 C 91 % 8.21 C
94 30-05-2022 07:45:00 9.6 C 91 % 8.21 C
95 30-05-2022 07:50:00 9.7 C 90 % 8.14 C
96 30-05-2022 07:55:00 9.8 C 90 % 8.24 C
97 30-05-2022 08:00:00 9.9 C 90 % 8.34 C
98 30-05-2022 08:05:00 10.1 C 90 % 8.54 C
99 30-05-2022 08:10:00 10.2 C 90 % 8.64 C
100 30-05-2022 08:15:00 10.2 C 89 % 8.47 C
Sensor: Nr:Datum:Temp:Feuchte:Taupunkt:
Aussen-T/F 101 30-05-2022 08:20:00 10.3 C 89 % 8.57 C
102 30-05-2022 08:25:00 10.6 C 89 % 8.86 C
103 30-05-2022 08:30:00 10.7 C 89 % 8.96 C
104 30-05-2022 08:35:00 10.9 C 89 % 9.16 C
105 30-05-2022 08:40:00 11.1 C 88 % 9.19 C
106 30-05-2022 08:45:00 11.1 C 86 % 8.85 C
107 30-05-2022 08:50:00 11.2 C 86 % 8.95 C
108 30-05-2022 08:55:00 11.2 C 86 % 8.95 C
109 30-05-2022 09:00:00 11.3 C 85 % 8.87 C
110 30-05-2022 09:05:00 11.3 C 84 % 8.7 C
111 30-05-2022 09:10:00 11.4 C 85 % 8.97 C
112 30-05-2022 09:15:00 11.4 C 84 % 8.8 C
113 30-05-2022 09:20:00 11.6 C 84 % 8.99 C
114 30-05-2022 09:25:00 11.7 C 83 % 8.91 C
115 30-05-2022 09:30:00 11.7 C 83 % 8.91 C
116 30-05-2022 09:35:00 11.8 C 81 % 8.65 C
117 30-05-2022 09:40:00 11.8 C 80 % 8.47 C
118 30-05-2022 09:45:00 11.9 C 80 % 8.56 C
119 30-05-2022 09:50:00 11.9 C 79 % 8.38 C
120 30-05-2022 09:55:00 12 C 79 % 8.48 C
121 30-05-2022 10:00:00 12.1 C 79 % 8.57 C
122 30-05-2022 10:05:00 12.4 C 79 % 8.86 C
123 30-05-2022 10:10:00 12.7 C 76 % 8.58 C
124 30-05-2022 10:15:00 13.1 C 76 % 8.97 C
125 30-05-2022 10:20:00 13.1 C 74 % 8.58 C
Sensor: Nr:Datum:Temp:Feuchte:Taupunkt:
Aussen-T/F 126 30-05-2022 10:25:00 12.9 C 74 % 8.38 C
127 30-05-2022 10:30:00 12.8 C 72 % 7.88 C
128 30-05-2022 10:35:00 12.8 C 71 % 7.68 C
129 30-05-2022 10:40:00 13 C 72 % 8.08 C
130 30-05-2022 10:45:00 13.2 C 72 % 8.27 C
131 30-05-2022 10:50:00 13.3 C 71 % 8.16 C
132 30-05-2022 10:55:00 13.2 C 64 % 6.55 C
133 30-05-2022 11:00:00 13.2 C 62 % 6.09 C
134 30-05-2022 11:05:00 13.3 C 63 % 6.41 C
135 30-05-2022 11:10:00 13.5 C 63 % 6.6 C
136 30-05-2022 11:15:00 13.8 C 61 % 6.42 C
137 30-05-2022 11:20:00 14.1 C 58 % 5.97 C
138 30-05-2022 11:25:00 14.1 C 57 % 5.72 C
139 30-05-2022 11:30:00 14 C 56 % 5.37 C
140 30-05-2022 11:35:00 13.9 C 57 % 5.53 C
141 30-05-2022 11:40:00 13.9 C 55 % 5.02 C
142 30-05-2022 11:45:00 14.2 C 56 % 5.56 C
143 30-05-2022 11:50:00 14.7 C 57 % 6.28 C
144 30-05-2022 11:55:00 15.4 C 55 % 6.42 C
145 30-05-2022 12:00:00 15.7 C 52 % 5.88 C
146 30-05-2022 12:05:00 15.8 C 53 % 6.25 C
147 30-05-2022 12:10:00 15.7 C 52 % 5.88 C
148 30-05-2022 12:15:00 15.5 C 53 % 5.97 C
149 30-05-2022 12:20:00 15.3 C 52 % 5.51 C
150 30-05-2022 12:25:00 15.1 C 52 % 5.33 C
Sensor: Nr:Datum:Temp:Feuchte:Taupunkt:
Aussen-T/F 151 30-05-2022 12:30:00 14.8 C 51 % 4.77 C
152 30-05-2022 12:35:00 14.9 C 54 % 5.69 C
153 30-05-2022 12:40:00 15.2 C 54 % 5.96 C
154 30-05-2022 12:45:00 15.4 C 52 % 5.61 C
155 30-05-2022 12:50:00 15.6 C 52 % 5.79 C
156 30-05-2022 12:55:00 15.7 C 55 % 6.69 C
157 30-05-2022 13:00:00 16.1 C 56 % 7.33 C
158 30-05-2022 13:05:00 16.2 C 55 % 7.16 C
159 30-05-2022 13:10:00 16.2 C 55 % 7.16 C
160 30-05-2022 13:15:00 16.2 C 54 % 6.89 C
161 30-05-2022 13:20:00 16.3 C 52 % 6.44 C
162 30-05-2022 13:25:00 16.4 C 51 % 6.25 C
163 30-05-2022 13:30:00 16.4 C 51 % 6.25 C
164 30-05-2022 13:35:00 16.4 C 48 % 5.37 C
165 30-05-2022 13:40:00 16.3 C 50 % 5.87 C
166 30-05-2022 13:45:00 16.7 C 51 % 6.52 C
167 30-05-2022 13:50:00 17.2 C 52 % 7.27 C
168 30-05-2022 13:55:00 17.7 C 47 % 6.26 C
169 30-05-2022 14:00:00 17.5 C 47 % 6.07 C
170 30-05-2022 14:05:00 17.1 C 49 % 6.31 C
171 30-05-2022 14:10:00 17.1 C 50 % 6.6 C
172 30-05-2022 14:15:00 17.3 C 49 % 6.5 C
173 30-05-2022 14:20:00 17.4 C 50 % 6.88 C
174 30-05-2022 14:25:00 17.3 C 48 % 6.2 C
175 30-05-2022 14:30:00 16.8 C 48 % 5.74 C
Sensor: Nr:Datum:Temp:Feuchte:Taupunkt:
Aussen-T/F 176 30-05-2022 14:35:00 16.6 C 48 % 5.56 C
177 30-05-2022 14:40:00 16.7 C 49 % 5.95 C
178 30-05-2022 14:45:00 16.8 C 48 % 5.74 C
179 30-05-2022 14:50:00 17.1 C 50 % 6.6 C
180 30-05-2022 14:55:00 17.4 C 48 % 6.29 C
181 30-05-2022 15:00:00 17.5 C 48 % 6.38 C
182 30-05-2022 15:05:00 17.3 C 47 % 5.89 C
183 30-05-2022 15:10:00 16.8 C 47 % 5.44 C
184 30-05-2022 15:15:00 16.7 C 49 % 5.95 C
185 30-05-2022 15:20:00 16.9 C 52 % 6.99 C
186 30-05-2022 15:25:00 17.4 C 48 % 6.29 C
187 30-05-2022 15:30:00 17.2 C 47 % 5.8 C
188 30-05-2022 15:35:00 16.9 C 49 % 6.13 C
189 30-05-2022 15:40:00 17.3 C 48 % 6.2 C
190 30-05-2022 15:45:00 17.3 C 48 % 6.2 C
191 30-05-2022 15:50:00 17.3 C 47 % 5.89 C
192 30-05-2022 15:55:00 17.2 C 49 % 6.4 C
193 30-05-2022 16:00:00 16.9 C 49 % 6.13 C
194 30-05-2022 16:05:00 16.8 C 48 % 5.74 C
195 30-05-2022 16:10:00 17.3 C 49 % 6.5 C
196 30-05-2022 16:15:00 17.9 C 47 % 6.44 C
197 30-05-2022 16:20:00 18.4 C 45 % 6.26 C
198 30-05-2022 16:25:00 18.6 C 46 % 6.77 C
199 30-05-2022 16:30:00 18.7 C 44 % 6.21 C
200 30-05-2022 16:35:00 18.4 C 43 % 5.61 C
Sensor: Nr:Datum:Temp:Feuchte:Taupunkt:
Aussen-T/F 201 30-05-2022 16:40:00 18.4 C 46 % 6.58 C
202 30-05-2022 16:45:00 18.5 C 43 % 5.7 C
203 30-05-2022 16:50:00 18.6 C 44 % 6.12 C
204 30-05-2022 16:55:00 18.7 C 43 % 5.88 C
205 30-05-2022 17:00:00 18.8 C 46 % 6.95 C
206 30-05-2022 17:05:00 18.6 C 44 % 6.12 C
207 30-05-2022 17:10:00 18.3 C 45 % 6.17 C
208 30-05-2022 17:15:00 18.1 C 46 % 6.31 C
209 30-05-2022 17:20:00 17.9 C 45 % 5.81 C
210 30-05-2022 17:25:00 17.7 C 46 % 5.95 C
211 30-05-2022 17:30:00 17.6 C 45 % 5.54 C
212 30-05-2022 17:35:00 17.4 C 44 % 5.03 C
213 30-05-2022 17:40:00 17.7 C 46 % 5.95 C
214 30-05-2022 17:45:00 17.7 C 44 % 5.31 C
215 30-05-2022 17:50:00 17.6 C 46 % 5.86 C
216 30-05-2022 17:55:00 17.4 C 45 % 5.36 C
217 30-05-2022 18:00:00 17.7 C 44 % 5.31 C
218 30-05-2022 18:05:00 17.8 C 44 % 5.4 C
219 30-05-2022 18:10:00 17.8 C 44 % 5.4 C
220 30-05-2022 18:15:00 17.7 C 46 % 5.95 C
221 30-05-2022 18:20:00 17.6 C 45 % 5.54 C
222 30-05-2022 18:25:00 17.7 C 45 % 5.63 C
223 30-05-2022 18:30:00 17.8 C 45 % 5.72 C
224 30-05-2022 18:35:00 17.9 C 44 % 5.49 C
225 30-05-2022 18:40:00 17.8 C 43 % 5.07 C
Sensor: Nr:Datum:Temp:Feuchte:Taupunkt:
Aussen-T/F 226 30-05-2022 18:45:00 17.6 C 44 % 5.22 C
227 30-05-2022 18:50:00 17.4 C 45 % 5.36 C
228 30-05-2022 18:55:00 17.3 C 47 % 5.89 C
229 30-05-2022 19:00:00 17.4 C 46 % 5.67 C
230 30-05-2022 19:05:00 17.5 C 46 % 5.76 C
231 30-05-2022 19:10:00 17.6 C 45 % 5.54 C
232 30-05-2022 19:15:00 17.5 C 46 % 5.76 C
233 30-05-2022 19:20:00 17.4 C 46 % 5.67 C
234 30-05-2022 19:25:00 17.3 C 48 % 6.2 C
235 30-05-2022 19:30:00 17.1 C 46 % 5.4 C
236 30-05-2022 19:35:00 16.8 C 47 % 5.44 C
237 30-05-2022 19:40:00 16.7 C 48 % 5.65 C
238 30-05-2022 19:45:00 16.5 C 48 % 5.46 C
239 30-05-2022 19:50:00 16.4 C 49 % 5.67 C
240 30-05-2022 19:55:00 16.3 C 50 % 5.87 C
241 30-05-2022 20:00:00 16.3 C 50 % 5.87 C
242 30-05-2022 20:05:00 16.3 C 51 % 6.16 C
243 30-05-2022 20:10:00 16.2 C 51 % 6.06 C
244 30-05-2022 20:15:00 16.1 C 52 % 6.25 C
245 30-05-2022 20:20:00 15.9 C 53 % 6.34 C
246 30-05-2022 20:25:00 15.8 C 53 % 6.25 C
247 30-05-2022 20:30:00 15.7 C 58 % 7.47 C
248 30-05-2022 20:35:00 15.7 C 60 % 7.97 C
249 30-05-2022 20:40:00 15.4 C 62 % 8.16 C
250 30-05-2022 20:45:00 15.3 C 63 % 8.31 C
Sensor: Nr:Datum:Temp:Feuchte:Taupunkt:
Aussen-T/F 251 30-05-2022 20:50:00 15 C 63 % 8.02 C
252 30-05-2022 20:55:00 14.7 C 63 % 7.74 C
253 30-05-2022 21:00:00 14.3 C 62 % 7.13 C
254 30-05-2022 21:05:00 14.1 C 63 % 7.17 C
255 30-05-2022 21:10:00 13.8 C 64 % 7.12 C
256 30-05-2022 21:15:00 13.4 C 64 % 6.74 C
257 30-05-2022 21:20:00 13.3 C 64 % 6.64 C
258 30-05-2022 21:25:00 13.1 C 65 % 6.68 C
259 30-05-2022 21:30:00 13 C 65 % 6.58 C
260 30-05-2022 21:35:00 12.9 C 65 % 6.49 C
261 30-05-2022 21:40:00 12.8 C 66 % 6.61 C
262 30-05-2022 21:45:00 12.7 C 67 % 6.74 C
263 30-05-2022 21:50:00 12.5 C 67 % 6.55 C
264 30-05-2022 21:55:00 12.4 C 67 % 6.45 C
265 30-05-2022 22:00:00 12.2 C 68 % 6.48 C
266 30-05-2022 22:05:00 12.1 C 69 % 6.59 C
267 30-05-2022 22:10:00 11.9 C 70 % 6.61 C
268 30-05-2022 22:15:00 11.7 C 70 % 6.42 C
269 30-05-2022 22:20:00 11.5 C 71 % 6.43 C
270 30-05-2022 22:25:00 11.2 C 70 % 5.94 C
271 30-05-2022 22:30:00 10.9 C 71 % 5.86 C
272 30-05-2022 22:35:00 10.7 C 72 % 5.87 C
273 30-05-2022 22:40:00 10.4 C 72 % 5.58 C
274 30-05-2022 22:45:00 10.2 C 73 % 5.58 C
275 30-05-2022 22:50:00 10 C 74 % 5.59 C
Sensor: Nr:Datum:Temp:Feuchte:Taupunkt:
Aussen-T/F 276 30-05-2022 22:55:00 9.8 C 75 % 5.59 C
277 30-05-2022 23:00:00 9.7 C 75 % 5.49 C
278 30-05-2022 23:05:00 9.6 C 75 % 5.39 C
279 30-05-2022 23:10:00 9.4 C 75 % 5.2 C
280 30-05-2022 23:15:00 9.2 C 76 % 5.2 C
281 30-05-2022 23:20:00 9.1 C 76 % 5.1 C
282 30-05-2022 23:25:00 9 C 77 % 5.19 C
283 30-05-2022 23:30:00 8.9 C 78 % 5.28 C
284 30-05-2022 23:35:00 8.9 C 78 % 5.28 C
285 30-05-2022 23:40:00 8.8 C 78 % 5.18 C
286 30-05-2022 23:45:00 8.7 C 79 % 5.27 C
287 30-05-2022 23:50:00 8.6 C 80 % 5.35 C
288 30-05-2022 23:55:00 8.6 C 80 % 5.35 C

Legende:
   Min
   Max


Maximal/Minimal-Werte vom 30.05.2022 - 30.05.2022

Sensor Min Max Avg
Temp
(Aussen-T/F)
7 °C
30-05-2022  02:15:00
18.8 °C
30-05-2022  17:00:00
12.47 °C
Feuchte
(Aussen-T/F)
43 %
30-05-2022  16:35:00
94 %
30-05-2022  02:30:00
70.77 %
Taupunkt
(Aussen-T/F)
4.77 C
30-05-2022  12:30:00
9.19 C
30-05-2022  08:40:00
6.65 C

Die Daten stammen von einer Davis Vantage Pro 2 Wetter-Station und werden unter Linux mit der Software wview2wettercgi und aufbereitet. Alle Angaben erfolgen ohne Gewähr für ihre Vollständigkeit oder Richtigkeit.
Kontakt: Rainer Krienke krienke@uni-koblenz.de . Meine Webseiten an der Uni Koblenz oder privat.
Version: $Revision: 0.78 $